createdAt,value
2022-10-23T07:24:19.466Z,100.00
2022-10-23T07:27:29.234Z,100.00
2022-10-23T07:30:43.816Z,100.00
2022-10-23T07:33:57.825Z,100.00
2022-10-23T07:37:07.533Z,100.00
2022-10-23T07:40:29.128Z,100.00
2022-10-23T07:43:40.184Z,100.00
2022-10-23T07:46:50.261Z,100.00
2022-10-23T07:50:00.618Z,100.00
2022-10-23T07:53:17.530Z,100.00
2022-10-23T07:56:30.116Z,100.00
2022-10-23T07:59:55.145Z,100.00
2022-10-23T08:03:13.347Z,100.00
2022-10-23T08:06:23.946Z,100.00
2022-10-23T08:09:41.759Z,100.00
2022-10-23T08:12:53.246Z,100.00
2022-10-23T08:16:15.550Z,100.00
2022-10-23T08:19:37.222Z,100.00
2022-10-23T08:22:47.034Z,100.00
2022-10-23T08:26:05.291Z,100.00
2022-10-23T08:29:16.654Z,100.00
2022-10-23T08:32:32.513Z,100.00
2022-10-23T08:35:49.587Z,100.00
2022-10-23T08:39:08.192Z,100.00
2022-10-23T08:42:27.392Z,100.00
2022-10-23T08:45:55.424Z,100.00
2022-10-23T08:49:36.888Z,100.00
2022-10-23T08:56:21.734Z,100.00
2022-10-23T08:59:39.876Z,100.00
2022-10-23T09:02:53.422Z,100.00
2022-10-23T09:06:12.414Z,100.00
2022-10-23T09:09:42.266Z,100.00
2022-10-23T09:12:52.105Z,100.00
2022-10-23T09:16:13.733Z,100.00
2022-10-23T09:19:27.017Z,100.00
2022-10-23T09:22:36.631Z,100.00
2022-10-23T09:25:57.333Z,100.00
2022-10-23T09:29:20.583Z,100.00
2022-10-23T09:32:43.487Z,100.00
2022-10-23T09:36:04.370Z,100.00
2022-10-23T09:39:24.073Z,100.00
2022-10-23T09:42:39.535Z,100.00
2022-10-23T09:45:58.100Z,100.00
2022-10-23T09:49:26.500Z,100.00
2022-10-23T09:52:38.384Z,100.00
2022-10-23T09:55:53.693Z,100.00
2022-10-23T09:59:08.776Z,100.00
2022-10-23T10:02:27.124Z,100.00
2022-10-23T10:05:56.659Z,100.00
2022-10-23T10:09:12.903Z,100.00
2022-10-23T10:12:41.654Z,100.00
2022-10-23T10:15:57.258Z,100.00
2022-10-23T10:19:19.723Z,100.00
2022-10-23T10:22:39.549Z,100.00
2022-10-23T10:26:07.919Z,99.28
2022-10-23T10:29:29.844Z,97.63
2022-10-23T10:32:52.861Z,95.41
2022-10-23T12:53:33.008Z,77.19
2022-10-23T12:56:46.178Z,77.09
2022-10-23T13:00:07.564Z,77.39
2022-10-23T13:03:34.736Z,75.68
2022-10-23T13:06:50.456Z,76.14
2022-10-23T13:26:31.975Z,75.14
2022-10-23T13:29:44.280Z,75.09
2022-10-23T13:32:59.291Z,75.37
2022-10-23T13:36:24.662Z,75.32
2022-10-23T13:39:37.290Z,76.00
2022-10-23T13:42:56.155Z,75.37
2022-10-23T13:46:16.786Z,74.87
2022-10-23T13:52:42.617Z,75.80
2022-10-23T13:56:20.927Z,76.87
2022-10-23T13:59:33.284Z,76.78
2022-10-23T14:02:45.695Z,77.38
2022-10-23T14:05:57.686Z,77.42
2022-10-23T14:09:10.387Z,78.73
2022-10-23T14:12:21.415Z,78.14
2022-10-23T14:15:44.738Z,77.64
2022-10-23T14:19:05.209Z,78.19
2022-10-23T14:22:26.486Z,79.55
2022-10-23T14:25:44.761Z,78.88
2022-10-23T14:29:02.372Z,77.90
2022-10-23T14:32:23.345Z,79.13
2022-10-23T14:39:26.145Z,78.76
2022-10-23T14:42:36.309Z,79.46
2022-10-23T14:45:46.408Z,80.02
2022-10-23T17:09:45.543Z,100.00
2022-10-23T17:13:00.971Z,100.00
2022-10-23T17:16:16.082Z,100.00
2022-10-23T17:19:44.274Z,100.00
2022-10-23T17:22:57.890Z,100.00
2022-10-23T17:26:10.176Z,100.00
2022-10-23T17:29:28.374Z,100.00
2022-10-23T17:32:39.566Z,100.00
2022-10-23T17:35:51.552Z,100.00
2022-10-23T17:39:03.184Z,100.00
2022-10-23T17:42:14.222Z,100.00
2022-10-23T17:45:26.764Z,100.00
2022-10-23T17:48:38.732Z,100.00
2022-10-23T17:51:54.901Z,100.00
2022-10-23T17:55:07.159Z,100.00
2022-10-23T17:58:18.464Z,100.00
2022-10-23T18:01:32.595Z,100.00
2022-10-23T18:04:44.541Z,100.00
2022-10-23T18:07:59.036Z,100.00
2022-10-23T18:11:16.072Z,100.00
2022-10-23T18:14:29.665Z,100.00
2022-10-23T18:17:44.008Z,100.00
2022-10-23T18:20:56.203Z,100.00
2022-10-23T18:24:08.724Z,100.00
2022-10-23T18:27:21.736Z,100.00
2022-10-23T18:30:33.429Z,100.00
2022-10-23T18:33:47.605Z,100.00
2022-10-23T18:36:58.255Z,100.00
2022-10-23T18:40:10.638Z,100.00
2022-10-23T18:43:42.665Z,100.00
2022-10-23T18:46:57.686Z,100.00
2022-10-23T18:50:14.059Z,100.00
2022-10-23T18:53:26.017Z,100.00
2022-10-23T18:56:40.753Z,100.00
2022-10-23T18:59:57.649Z,100.00
2022-10-23T19:03:11.486Z,100.00
2022-10-23T19:06:24.992Z,100.00
2022-10-23T19:09:36.728Z,100.00
2022-10-23T19:12:52.488Z,100.00
2022-10-23T19:16:08.024Z,100.00
2022-10-23T19:19:23.458Z,100.00
2022-10-23T19:22:47.513Z,100.00
2022-10-23T19:26:02.863Z,100.00
2022-10-23T19:29:23.292Z,100.00
2022-10-23T19:32:35.693Z,100.00
2022-10-23T19:35:50.472Z,100.00
2022-10-23T19:39:03.388Z,100.00
2022-10-23T19:42:18.312Z,100.00
2022-10-23T19:48:44.965Z,100.00
2022-10-23T19:51:56.886Z,100.00
2022-10-23T19:55:12.803Z,100.00
2022-10-23T19:58:25.143Z,100.00
2022-10-23T20:01:37.951Z,100.00
2022-10-23T20:04:51.272Z,100.00
2022-10-23T20:08:03.841Z,100.00
2022-10-23T20:11:22.758Z,100.00
2022-10-23T20:14:36.101Z,100.00
2022-10-23T20:17:49.763Z,100.00
2022-10-23T20:21:06.259Z,100.00
2022-10-23T20:24:23.845Z,100.00
2022-10-23T20:27:38.983Z,100.00
2022-10-23T20:30:52.910Z,100.00
2022-10-23T20:34:04.972Z,100.00
2022-10-23T20:37:15.947Z,100.00
2022-10-23T20:40:26.685Z,100.00
2022-10-23T20:43:39.096Z,100.00
2022-10-23T20:46:51.224Z,100.00
